createdAt,value
2019-01-27T00:03:47.008Z,11.30
2019-01-27T00:09:51.325Z,11.10
2019-01-27T00:15:55.639Z,10.50
2019-01-27T00:21:59.913Z,11.10
2019-01-27T00:28:04.403Z,11.40
2019-01-27T00:34:08.622Z,11.60
2019-01-27T00:40:13.500Z,11.20
2019-01-27T00:46:17.822Z,11.50
2019-01-27T00:52:22.061Z,11.70
2019-01-27T00:58:29.307Z,11.50
2019-01-27T01:04:33.551Z,11.30
2019-01-27T01:10:37.847Z,11.10
2019-01-27T01:16:42.820Z,10.80
2019-01-27T01:22:47.577Z,11.40
2019-01-27T01:28:51.986Z,11.70
2019-01-27T01:34:56.505Z,11.50
2019-01-27T01:41:00.787Z,11.10
2019-01-27T01:47:05.084Z,10.90
2019-01-27T01:53:09.296Z,11.10
2019-01-27T01:59:13.529Z,10.50
2019-01-27T02:05:18.538Z,10.20
2019-01-27T02:11:22.772Z,10.30
2019-01-27T02:17:27.158Z,9.90
2019-01-27T02:23:31.358Z,10.00
2019-01-27T02:29:35.642Z,10.00
2019-01-27T02:35:40.145Z,9.90
2019-01-27T02:41:44.510Z,10.50
2019-01-27T02:47:48.735Z,10.50
2019-01-27T02:53:52.986Z,10.10
2019-01-27T02:59:57.196Z,10.20
2019-01-27T03:06:30.655Z,9.50
2019-01-27T03:12:34.954Z,9.00
2019-01-27T03:18:39.376Z,8.80
2019-01-27T03:24:43.593Z,10.70
2019-01-27T03:30:47.925Z,11.10
2019-01-27T03:36:52.154Z,10.20
2019-01-27T03:42:56.532Z,10.00
2019-01-27T03:49:00.990Z,9.10
2019-01-27T03:55:07.135Z,8.90
2019-01-27T04:01:11.411Z,9.20
2019-01-27T04:07:15.639Z,10.30
2019-01-27T04:13:19.873Z,9.60
2019-01-27T04:19:24.268Z,9.30
2019-01-27T04:25:28.553Z,8.90
2019-01-27T04:31:32.775Z,8.60
2019-01-27T04:37:37.003Z,8.60
2019-01-27T04:43:41.266Z,8.90
2019-01-27T04:49:45.537Z,9.20
2019-01-27T04:55:49.766Z,8.80
2019-01-27T05:01:53.999Z,9.20
2019-01-27T05:07:58.423Z,8.60
2019-01-27T05:14:02.799Z,8.40
2019-01-27T05:20:07.995Z,8.20
2019-01-27T05:26:12.210Z,8.70
2019-01-27T05:32:16.503Z,9.10
2019-01-27T05:38:20.721Z,8.80
2019-01-27T05:44:25.043Z,8.50
2019-01-27T05:50:29.347Z,8.10
2019-01-27T05:56:33.640Z,9.10
2019-01-27T06:02:37.935Z,8.20
2019-01-27T06:08:42.147Z,7.80
2019-01-27T06:14:46.353Z,8.10
2019-01-27T06:20:50.606Z,8.50
2019-01-27T06:26:54.963Z,8.70
2019-01-27T06:33:04.589Z,8.90
2019-01-27T06:39:10.376Z,8.30
2019-01-27T06:45:14.796Z,8.90
2019-01-27T06:51:19.320Z,8.90
2019-01-27T06:57:23.537Z,8.90
2019-01-27T07:03:45.285Z,9.20
2019-01-27T07:09:57.090Z,8.90
2019-01-27T07:16:19.360Z,8.30
2019-01-27T07:22:35.954Z,8.40
2019-01-27T07:28:52.018Z,7.60
2019-01-27T07:35:13.719Z,7.80
2019-01-27T07:41:31.108Z,7.50
2019-01-27T07:47:50.322Z,7.40
2019-01-27T07:54:13.806Z,7.80
2019-01-27T08:00:38.058Z,8.50
2019-01-27T08:06:59.660Z,8.90
2019-01-27T08:13:16.550Z,8.00
2019-01-27T08:19:42.846Z,7.70
2019-01-27T08:26:21.252Z,7.20
2019-01-27T08:32:47.624Z,7.00
2019-01-27T08:39:09.438Z,7.00
2019-01-27T08:45:31.167Z,7.00
2019-01-27T08:51:35.493Z,7.00
2019-01-27T08:57:39.734Z,6.90
2019-01-27T09:03:59.141Z,6.90
2019-01-27T09:10:28.303Z,6.80
2019-01-27T09:16:45.041Z,6.90
2019-01-27T09:23:05.785Z,6.90
2019-01-27T09:29:14.007Z,6.90
2019-01-27T09:35:46.429Z,8.30
2019-01-27T09:42:03.158Z,9.20
2019-01-27T09:48:25.089Z,12.00
2019-01-27T09:54:39.075Z,10.50
2019-01-27T10:00:47.797Z,8.40
2019-01-27T10:07:11.087Z,7.70
2019-01-27T10:13:34.327Z,8.20
2019-01-27T10:19:56.181Z,9.50
2019-01-27T10:26:07.394Z,10.60
2019-01-27T10:32:26.484Z,9.80
2019-01-27T10:38:52.549Z,9.40
2019-01-27T10:45:26.353Z,11.70
2019-01-27T10:51:43.075Z,11.20
2019-01-27T10:58:04.153Z,11.80
2019-01-27T11:04:36.502Z,11.80
2019-01-27T11:11:00.518Z,12.30
2019-01-27T11:17:29.993Z,12.50
2019-01-27T11:24:03.174Z,13.20
2019-01-27T11:30:34.558Z,13.30
2019-01-27T11:36:59.429Z,13.10
2019-01-27T11:43:21.841Z,12.80
2019-01-27T11:49:48.236Z,12.90
2019-01-27T11:55:55.231Z,13.20
2019-01-27T12:01:59.546Z,12.40
2019-01-27T12:08:03.897Z,12.90
2019-01-27T12:14:08.207Z,13.00
2019-01-27T12:20:12.797Z,13.10
2019-01-27T12:26:17.024Z,13.30
2019-01-27T12:32:21.435Z,13.50
2019-01-27T12:38:25.735Z,13.30
2019-01-27T12:44:30.085Z,12.60
2019-01-27T12:50:34.319Z,12.90
2019-01-27T12:56:38.617Z,14.00
2019-01-27T13:02:42.839Z,13.70
2019-01-27T13:08:47.149Z,13.90
2019-01-27T13:14:51.367Z,14.10
2019-01-27T13:20:55.668Z,14.00
2019-01-27T13:26:59.931Z,13.40
2019-01-27T13:33:04.221Z,13.90
2019-01-27T13:39:09.280Z,13.80
2019-01-27T13:45:16.122Z,13.40
2019-01-27T13:51:20.398Z,13.70
2019-01-27T13:57:24.660Z,13.70
2019-01-27T14:03:28.995Z,12.70
2019-01-27T14:09:33.211Z,13.40
2019-01-27T14:15:37.614Z,13.40
2019-01-27T14:21:42.140Z,13.60
2019-01-27T14:27:46.370Z,13.00
2019-01-27T14:33:50.617Z,13.50
2019-01-27T14:39:54.828Z,13.30
2019-01-27T14:45:59.144Z,12.60
2019-01-27T14:52:03.450Z,12.60
2019-01-27T14:58:07.743Z,13.00
2019-01-27T15:04:11.968Z,12.50
2019-01-27T15:10:17.834Z,12.90
2019-01-27T15:16:22.048Z,13.20
2019-01-27T15:22:26.275Z,12.40
2019-01-27T15:28:30.579Z,12.20
2019-01-27T15:34:34.804Z,12.20
2019-01-27T15:40:39.378Z,11.80
2019-01-27T15:46:43.632Z,13.80
2019-01-27T15:52:48.242Z,12.70
2019-01-27T15:58:52.559Z,12.20
2019-01-27T16:04:56.862Z,12.00
2019-01-27T16:11:01.147Z,11.30
2019-01-27T16:17:05.871Z,8.90
2019-01-27T16:23:15.429Z,6.60
2019-01-27T16:29:26.248Z,6.20
2019-01-27T16:35:30.545Z,6.00
2019-01-27T16:41:34.795Z,9.90
2019-01-27T16:47:39.143Z,9.90
2019-01-27T16:53:43.349Z,7.50
2019-01-27T16:59:47.647Z,7.40
2019-01-27T17:05:51.959Z,7.40
2019-01-27T17:11:56.179Z,6.50
2019-01-27T17:18:00.411Z,6.40
2019-01-27T17:24:05.079Z,7.30
2019-01-27T17:30:12.473Z,7.70
2019-01-27T17:36:16.871Z,7.10
2019-01-27T17:42:21.272Z,9.40
2019-01-27T17:48:25.631Z,8.40
2019-01-27T17:54:30.055Z,9.50
2019-01-27T18:00:51.757Z,10.20
2019-01-27T18:07:20.846Z,9.80
2019-01-27T18:13:53.083Z,9.60
2019-01-27T18:19:57.356Z,9.90
2019-01-27T18:26:01.675Z,9.90
2019-01-27T18:32:06.168Z,8.80
2019-01-27T18:38:10.787Z,9.30
2019-01-27T18:44:15.230Z,10.10
2019-01-27T18:50:20.096Z,10.20
2019-01-27T18:56:43.241Z,10.90
2019-01-27T19:02:54.686Z,10.60
2019-01-27T19:09:16.900Z,10.00
2019-01-27T19:15:39.106Z,9.00
2019-01-27T19:22:11.807Z,8.30
2019-01-27T19:28:41.782Z,10.80
2019-01-27T19:34:58.252Z,9.50
2019-01-27T19:41:27.580Z,10.20
2019-01-27T19:47:49.399Z,10.50
2019-01-27T19:54:12.639Z,10.70
2019-01-27T20:00:50.929Z,11.10
2019-01-27T20:07:12.617Z,10.90
2019-01-27T20:13:28.320Z,11.60
2019-01-27T20:19:57.532Z,11.10
2019-01-27T20:26:26.656Z,10.40
2019-01-27T20:32:48.965Z,11.00
2019-01-27T20:39:21.256Z,10.40
2019-01-27T20:45:38.199Z,10.90
2019-01-27T20:52:06.572Z,11.60
2019-01-27T20:58:24.680Z,11.80
2019-01-27T21:04:36.463Z,11.40
2019-01-27T21:11:02.544Z,11.80
2019-01-27T21:17:44.118Z,11.70
2019-01-27T21:23:48.436Z,9.90
2019-01-27T21:29:52.746Z,10.30
2019-01-27T21:35:57.110Z,8.40
2019-01-27T21:42:01.389Z,8.10
2019-01-27T21:48:05.761Z,11.00
2019-01-27T21:54:11.140Z,11.10
2019-01-27T22:00:23.115Z,12.00
2019-01-27T22:06:27.336Z,10.80
2019-01-27T22:12:31.556Z,11.20
2019-01-27T22:18:35.930Z,11.10
2019-01-27T22:24:40.126Z,11.60
2019-01-27T22:30:44.444Z,11.60
2019-01-27T22:36:48.632Z,11.50
2019-01-27T22:42:52.840Z,10.90
2019-01-27T22:48:57.180Z,12.10
2019-01-27T22:55:01.493Z,11.90
2019-01-27T23:01:17.054Z,12.10
2019-01-27T23:07:21.302Z,12.50
2019-01-27T23:13:25.537Z,12.40
2019-01-27T23:19:29.805Z,12.20
2019-01-27T23:25:34.124Z,11.90
2019-01-27T23:31:38.495Z,12.20
2019-01-27T23:37:43.075Z,12.50
2019-01-27T23:43:47.297Z,12.10
2019-01-27T23:49:51.542Z,12.30
2019-01-27T23:55:55.866Z,12.30
